Time;durP1;ratioP1;P1;durP2;ratioP2;P2;SDS_P1;SDS_P2;PMS_P1;PMS_P2;Temp;Humidity;BMP_temperature;BMP_pressure;BME280_temperature;BME280_humidity;BME280_pressure;Samples;Min_cycle;Max_cycle;Signal;HPM_P1;HPM_P2
2023/07/28 00:00:21;;;;;;;3.63;1.40;;;19.00;99.90;;;18.45;100.00;100570.06;3992988;29;20061;-74
2023/07/28 00:02:22;;;;;;;1.60;0.90;;;19.00;99.90;;;18.39;100.00;100549.53;3992692;29;20027;-74
2023/07/28 00:04:23;;;;;;;3.20;0.95;;;19.00;99.90;;;18.44;100.00;100563.06;3974120;29;20031;-74
2023/07/28 00:06:24;;;;;;;3.75;1.00;;;18.90;99.90;;;18.45;100.00;100564.72;3991694;29;20042;-74
2023/07/28 00:08:24;;;;;;;2.35;1.00;;;19.00;99.90;;;18.45;100.00;100563.91;3986618;29;20031;-74
2023/07/28 00:10:25;;;;;;;3.35;1.05;;;19.00;99.90;;;18.43;100.00;100558.75;3990788;29;20034;-74
2023/07/28 00:12:26;;;;;;;2.20;0.90;;;19.00;99.90;;;18.48;100.00;100560.81;3972494;29;20093;-73
2023/07/28 00:14:28;;;;;;;3.83;1.00;;;19.00;99.90;;;18.46;100.00;100561.00;3978626;29;20045;-74
2023/07/28 00:16:29;;;;;;;3.45;0.90;;;19.00;99.90;;;18.47;100.00;100568.00;3989614;29;20492;-74
2023/07/28 00:18:30;;;;;;;3.15;1.10;;;19.00;99.90;;;18.45;100.00;100555.88;3992681;29;20037;-74
2023/07/28 00:20:30;;;;;;;1.33;0.68;;;19.00;99.90;;;18.46;100.00;100554.84;3973371;29;20027;-73
2023/07/28 00:22:31;;;;;;;1.52;0.80;;;19.00;99.90;;;18.46;100.00;100563.66;3991822;29;20029;-74
2023/07/28 00:24:32;;;;;;;1.50;0.70;;;19.00;99.90;;;18.44;100.00;100560.41;3979432;29;20034;-74
2023/07/28 00:26:33;;;;;;;4.95;0.80;;;19.00;99.90;;;18.47;100.00;100559.16;3978964;29;20038;-74
2023/07/28 00:28:34;;;;;;;2.60;1.08;;;19.00;99.90;;;18.48;100.00;100558.97;3975051;29;20078;-74
2023/07/28 00:30:35;;;;;;;3.28;0.70;;;19.00;99.90;;;18.46;100.00;100555.66;3989273;29;20035;-73
2023/07/28 00:32:35;;;;;;;1.40;0.73;;;19.00;99.90;;;18.43;100.00;100542.72;3994921;29;20037;-74
2023/07/28 00:34:36;;;;;;;1.92;0.70;;;19.00;99.90;;;18.45;100.00;100550.53;3996709;29;20026;-74
2023/07/28 00:36:37;;;;;;;4.68;0.80;;;19.00;99.90;;;18.44;100.00;100555.06;3980199;29;20030;-74
2023/07/28 00:38:38;;;;;;;2.28;0.80;;;19.00;99.90;;;18.45;100.00;100554.03;3980201;29;20411;-74
2023/07/28 00:40:39;;;;;;;3.85;0.70;;;18.90;99.90;;;18.44;100.00;100547.03;3996362;29;20116;-74
2023/07/28 00:42:40;;;;;;;1.98;0.60;;;19.00;99.90;;;18.44;100.00;100549.72;3980322;29;20027;-74
2023/07/28 00:44:40;;;;;;;1.88;0.90;;;19.00;99.90;;;18.38;100.00;100545.22;3992749;29;20039;-74
2023/07/28 00:46:41;;;;;;;3.03;0.90;;;18.90;99.90;;;18.42;100.00;100551.78;3996258;29;20440;-74
2023/07/28 00:48:44;;;;;;;2.55;0.80;;;19.00;99.90;;;18.40;100.00;100548.50;3980151;29;20031;-73
2023/07/28 00:50:48;;;;;;;1.98;0.73;;;19.00;99.90;;;18.42;100.00;100553.63;3980141;29;20053;-74
2023/07/28 00:52:49;;;;;;;2.20;0.80;;;18.90;99.90;;;18.41;100.00;100550.13;3979981;29;20514;-73
2023/07/28 00:54:50;;;;;;;2.55;0.70;;;18.90;99.90;;;18.41;100.00;100558.16;3980143;29;20034;-74
2023/07/28 00:56:51;;;;;;;1.30;0.70;;;18.90;99.90;;;18.39;100.00;100554.06;3996230;29;20046;-73
2023/07/28 00:58:53;;;;;;;3.58;0.70;;;18.90;99.90;;;18.39;100.00;100554.88;3996382;29;20034;-73
2023/07/28 01:00:53;;;;;;;3.75;0.73;;;18.90;99.90;;;18.39;100.00;100557.56;3996178;29;20599;-74
2023/07/28 01:02:55;;;;;;;0.95;0.40;;;18.90;99.90;;;18.43;100.00;100557.97;3996139;29;20068;-74
2023/07/28 01:04:56;;;;;;;3.13;0.80;;;18.90;99.90;;;18.38;100.00;100555.91;3996095;29;20037;-74
2023/07/28 01:07:25;;;;;;;1.70;0.50;;;18.90;99.90;;;18.39;100.00;100554.88;3979920;29;20039;-74
2023/07/28 01:09:36;;;;;;;1.55;0.50;;;18.90;99.90;;;18.37;100.00;100546.25;3990317;29;20491;-74
2023/07/28 01:11:37;;;;;;;0.70;0.50;;;18.90;99.90;;;18.38;100.00;100550.56;3965220;29;20031;-73
2023/07/28 01:13:38;;;;;;;3.15;0.55;;;18.90;99.90;;;18.29;100.00;100545.66;3969496;29;20063;-74
2023/07/28 01:15:39;;;;;;;1.60;0.60;;;18.90;99.90;;;18.36;100.00;100551.81;3993286;29;20487;-74
2023/07/28 01:17:40;;;;;;;1.77;0.50;;;18.90;99.90;;;18.35;100.00;100550.97;3974781;29;20482;-74
2023/07/28 01:19:41;;;;;;;1.30;0.35;;;18.90;99.90;;;18.36;100.00;100549.97;3994179;29;20587;-74
2023/07/28 01:21:44;;;;;;;0.52;0.22;;;18.90;99.90;;;18.36;100.00;100551.81;3979878;29;20034;-74
2023/07/28 01:24:07;;;;;;;1.10;0.60;;;18.90;99.90;;;18.35;100.00;100542.97;3979669;29;20050;-73
2023/07/28 01:26:11;;;;;;;1.92;0.73;;;18.90;99.90;;;18.34;100.00;100546.66;3979452;29;20035;-74
2023/07/28 01:28:13;;;;;;;2.08;0.43;;;18.90;99.90;;;18.32;100.00;100546.06;3979607;29;20105;-73
2023/07/28 01:30:14;;;;;;;2.50;0.43;;;18.90;99.90;;;18.32;100.00;100542.56;3979833;29;20046;-74
2023/07/28 01:32:15;;;;;;;1.95;0.45;;;18.90;99.90;;;18.30;100.00;100536.63;3995599;29;20041;-74
2023/07/28 01:34:16;;;;;;;1.58;0.45;;;18.90;99.90;;;18.32;100.00;100535.38;3995779;29;20038;-74
2023/07/28 01:36:17;;;;;;;2.53;0.50;;;18.90;99.90;;;18.31;100.00;100540.94;3979649;29;20038;-74
2023/07/28 01:38:18;;;;;;;1.92;0.43;;;18.90;99.90;;;18.34;100.00;100540.53;3995830;29;20053;-74
2023/07/28 01:40:20;;;;;;;1.98;0.73;;;18.90;99.90;;;18.30;100.00;100532.09;3995750;29;20042;-73
2023/07/28 01:42:21;;;;;;;2.08;0.60;;;18.90;99.90;;;18.30;100.00;100533.97;3979357;29;20118;-74
2023/07/28 01:44:22;;;;;;;2.90;0.45;;;18.90;99.90;;;18.33;100.00;100537.03;3988584;29;20403;-74
2023/07/28 01:46:23;;;;;;;0.98;0.47;;;18.90;99.90;;;18.31;100.00;100528.38;3982314;29;20023;-74
2023/07/28 01:48:23;;;;;;;0.60;0.30;;;18.90;99.90;;;18.35;100.00;100539.47;3990614;29;20523;-74
2023/07/28 01:50:24;;;;;;;1.55;0.70;;;18.90;99.90;;;18.35;100.00;100534.13;3993316;29;20042;-73
2023/07/28 01:52:25;;;;;;;0.85;0.40;;;18.90;99.90;;;18.33;100.00;100530.88;3979515;29;20514;-73
2023/07/28 01:54:26;;;;;;;1.17;0.45;;;18.90;99.90;;;18.33;100.00;100538.88;3979420;29;20027;-74
2023/07/28 01:56:27;;;;;;;0.73;0.50;;;18.90;99.90;;;18.37;100.00;100543.56;3994482;29;20041;-74
2023/07/28 01:58:28;;;;;;;1.25;0.60;;;18.90;99.90;;;18.35;100.00;100537.63;3995616;29;20395;-74
2023/07/28 02:00:28;;;;;;;1.67;1.05;;;18.90;99.90;;;18.36;100.00;100541.94;3979356;29;20031;-74
2023/07/28 02:02:29;;;;;;;1.17;0.40;;;18.90;99.90;;;18.35;100.00;100532.28;3995322;29;20503;-74
2023/07/28 02:04:30;;;;;;;1.30;0.45;;;18.90;99.90;;;18.35;100.00;100532.28;3995785;29;20091;-74
2023/07/28 02:06:32;;;;;;;0.30;0.20;;;18.90;99.90;;;18.35;100.00;100526.94;3995482;29;20376;-74
2023/07/28 02:08:33;;;;;;;3.17;0.50;;;18.90;99.90;;;18.35;100.00;100532.28;3979348;29;20031;-74
2023/07/28 02:10:34;;;;;;;0.68;0.45;;;18.90;99.90;;;18.34;100.00;100527.97;3995545;29;20410;-74
2023/07/28 02:12:34;;;;;;;2.25;0.45;;;18.90;99.90;;;18.29;100.00;100519.78;3979345;29;20034;-74
2023/07/28 02:14:35;;;;;;;2.15;0.45;;;18.90;99.90;;;18.35;100.00;100534.97;3995467;29;20523;-74
2023/07/28 02:16:36;;;;;;;0.73;0.40;;;18.90;99.90;;;18.37;100.00;100526.75;3990624;29;20396;-74
2023/07/28 02:18:37;;;;;;;0.85;0.45;;;18.90;99.90;;;18.35;100.00;100529.63;3979332;29;20111;-74
2023/07/28 02:20:38;;;;;;;1.75;0.40;;;18.90;99.90;;;18.35;100.00;100537.63;3979213;29;20038;-74
2023/07/28 02:22:40;;;;;;;1.65;0.38;;;18.90;99.90;;;18.33;100.00;100525.53;3997570;29;20047;-74
2023/07/28 02:24:41;;;;;;;0.82;0.30;;;18.90;99.90;;;18.32;100.00;100519.34;3982148;29;20042;-74
2023/07/28 02:26:42;;;;;;;1.10;0.50;;;18.90;99.90;;;18.30;100.00;100516.09;3982199;29;20496;-74
2023/07/28 02:28:43;;;;;;;1.00;0.40;;;18.90;99.90;;;18.29;100.00;100511.78;3982144;29;20385;-73
2023/07/28 02:30:44;;;;;;;1.27;0.40;;;18.90;99.90;;;18.31;100.00;100523.03;3998218;29;20031;-73
2023/07/28 02:32:45;;;;;;;2.05;0.60;;;18.90;99.90;;;18.32;100.00;100521.19;3981951;29;20046;-74
2023/07/28 02:34:45;;;;;;;1.48;0.50;;;18.90;99.90;;;18.30;100.00;100510.75;3998254;29;20026;-74
2023/07/28 02:36:47;;;;;;;0.75;0.30;;;18.90;99.90;;;18.32;100.00;100514.00;3998121;29;20035;-74
2023/07/28 02:38:48;;;;;;;0.50;0.30;;;18.90;99.90;;;18.32;100.00;100524.69;3982236;29;20049;-73
2023/07/28 02:40:49;;;;;;;1.00;0.40;;;18.90;99.90;;;18.30;100.00;100513.41;3997900;29;20026;-74
2023/07/28 02:42:50;;;;;;;4.43;0.60;;;18.90;99.90;;;18.32;100.00;100518.53;3998040;29;20037;-74
2023/07/28 02:44:51;;;;;;;0.98;0.50;;;18.90;99.90;;;18.30;100.00;100515.25;3998162;29;20027;-73
2023/07/28 02:46:52;;;;;;;1.80;0.40;;;18.90;99.90;;;18.31;100.00;100517.72;3993714;29;20030;-74
2023/07/28 02:48:53;;;;;;;3.22;0.50;;;18.90;99.90;;;18.31;100.00;100515.03;3986861;29;20384;-74
2023/07/28 02:50:54;;;;;;;0.98;0.55;;;18.90;99.90;;;18.29;100.00;100511.78;3998014;29;20091;-74
2023/07/28 02:52:54;;;;;;;1.10;0.55;;;18.90;99.90;;;18.30;100.00;100510.75;3997933;29;20521;-74
2023/07/28 02:54:56;;;;;;;1.63;0.60;;;18.90;99.90;;;18.31;100.00;100509.69;3997918;29;20498;-74
2023/07/28 02:56:56;;;;;;;1.08;0.70;;;18.90;99.90;;;18.29;100.00;100501.09;3995341;29;20106;-74
2023/07/28 02:58:57;;;;;;;3.42;1.25;;;18.90;99.90;;;18.27;100.00;100497.81;3981890;29;20042;-74
2023/07/28 03:00:58;;;;;;;2.17;0.70;;;18.80;99.90;;;18.29;100.00;100498.41;3981910;29;20042;-74
2023/07/28 03:02:59;;;;;;;1.80;0.60;;;18.80;99.90;;;18.26;100.00;100490.81;3997528;29;20026;-74
2023/07/28 03:05:00;;;;;;;1.00;0.50;;;18.80;99.90;;;18.26;100.00;100493.50;3981621;29;20031;-74
2023/07/28 03:07:01;;;;;;;1.02;0.57;;;18.80;99.90;;;18.28;100.00;100501.31;3997847;29;20019;-74
2023/07/28 03:09:02;;;;;;;2.28;0.65;;;18.80;99.90;;;18.25;100.00;100502.53;3997779;29;20031;-73
2023/07/28 03:11:03;;;;;;;3.40;0.70;;;18.80;99.90;;;18.22;100.00;100500.28;3997766;29;20042;-74
2023/07/28 03:13:04;;;;;;;0.95;0.40;;;18.80;99.90;;;18.23;100.00;100494.75;3977502;29;20492;-74
2023/07/28 03:15:05;;;;;;;1.35;0.77;;;18.80;99.90;;;18.25;100.00;100499.88;3981537;29;20031;-74
2023/07/28 03:17:06;;;;;;;3.08;0.80;;;18.80;99.90;;;18.27;100.00;100503.16;3985183;29;20050;-74
2023/07/28 03:19:07;;;;;;;1.80;0.70;;;18.80;99.90;;;18.24;100.00;100501.75;3982602;29;20031;-74
2023/07/28 03:21:11;;;;;;;1.35;0.73;;;18.80;99.90;;;18.25;100.00;100503.34;3996334;29;20035;-74
2023/07/28 03:23:12;;;;;;;;;;;18.80;99.90;;;18.19;100.00;100495.38;3997744;29;20051;-74
2023/07/28 03:25:13;;;;;;;1.33;0.77;;;18.80;99.90;;;18.21;100.00;100498.66;3981486;29;19921;-74
2023/07/28 03:27:14;;;;;;;1.02;0.65;;;18.80;99.90;;;18.24;100.00;100504.41;3981314;29;20043;-74
2023/07/28 03:29:14;;;;;;;1.25;0.68;;;18.80;99.90;;;18.22;100.00;100498.44;3981290;29;20034;-74
2023/07/28 03:31:15;;;;;;;1.55;0.70;;;18.80;99.90;;;18.23;100.00;100489.41;3977912;29;20500;-74
2023/07/28 03:33:16;;;;;;;1.80;1.10;;;18.80;99.90;;;18.30;100.00;100493.91;3972070;29;20038;-74
2023/07/28 03:35:17;;;;;;;2.25;0.70;;;18.80;99.90;;;18.28;100.00;100494.09;3997298;29;20035;-74
2023/07/28 03:37:19;;;;;;;2.35;0.50;;;18.80;99.90;;;18.29;100.00;100498.41;3997335;29;20054;-74
2023/07/28 03:39:19;;;;;;;1.85;0.65;;;18.80;99.90;;;18.27;100.00;100500.50;3997444;29;20506;-74
2023/07/28 03:41:21;;;;;;;1.13;0.50;;;18.80;99.90;;;18.27;100.00;100497.00;3997226;29;20026;-74
2023/07/28 03:43:22;;;;;;;1.88;0.60;;;18.80;99.90;;;18.29;100.00;100497.59;3981084;29;20038;-74
2023/07/28 03:45:23;;;;;;;3.08;0.60;;;18.80;99.90;;;18.27;100.00;100492.47;3997223;29;20153;-74
2023/07/28 03:47:23;;;;;;;0.90;0.50;;;18.80;99.90;;;18.30;100.00;100494.72;3996766;29;20042;-74
2023/07/28 03:49:24;;;;;;;1.10;0.40;;;18.90;99.90;;;18.29;100.00;100501.09;3997166;29;20041;-74
2023/07/28 03:51:25;;;;;;;0.93;0.40;;;18.80;99.90;;;18.28;100.00;100491.44;3997121;29;20061;-74
2023/07/28 03:53:26;;;;;;;1.38;0.40;;;18.90;99.90;;;18.29;100.00;100497.59;3997103;29;20034;-74
2023/07/28 03:55:27;;;;;;;2.25;0.50;;;18.80;99.90;;;18.29;100.00;100502.94;3996978;29;20039;-74
2023/07/28 03:57:28;;;;;;;0.95;0.30;;;18.80;99.90;;;18.27;100.00;100492.47;3994092;29;20039;-73
2023/07/28 03:59:28;;;;;;;2.85;0.30;;;18.80;99.90;;;18.28;100.00;100494.09;3981048;29;20050;-73
2023/07/28 04:01:29;;;;;;;0.60;0.30;;;18.80;99.90;;;18.29;100.00;100493.06;3995146;29;20087;-73
2023/07/28 04:03:30;;;;;;;1.50;0.30;;;18.90;99.90;;;18.27;100.00;100495.16;3979517;29;20039;-73
2023/07/28 04:05:31;;;;;;;0.90;0.43;;;18.80;99.90;;;18.21;100.00;100485.31;3988048;29;20403;-73
2023/07/28 04:07:32;;;;;;;1.50;0.32;;;18.80;99.90;;;18.26;100.00;100490.81;3980693;29;20026;-73
2023/07/28 04:09:33;;;;;;;0.98;0.32;;;18.80;99.90;;;18.28;100.00;100491.44;3996953;29;20027;-73
2023/07/28 04:11:33;;;;;;;0.88;0.30;;;18.80;99.90;;;18.25;100.00;100481.16;3996825;29;20117;-73
2023/07/28 04:13:35;;;;;;;2.13;0.38;;;18.80;99.90;;;18.24;100.00;100487.56;3996932;29;20039;-73
2023/07/28 04:15:35;;;;;;;1.17;0.32;;;18.80;99.90;;;18.23;100.00;100491.25;3978682;29;20047;-73
2023/07/28 04:17:36;;;;;;;1.77;0.30;;;18.80;99.90;;;18.21;100.00;100491.47;3995473;29;20037;-73
2023/07/28 04:19:37;;;;;;;1.75;0.30;;;18.80;99.90;;;18.20;100.00;100491.69;3974466;29;20031;-74
2023/07/28 04:21:39;;;;;;;1.73;0.30;;;18.80;99.90;;;18.21;100.00;100491.47;3995242;29;20031;-73
2023/07/28 04:23:40;;;;;;;5.15;0.50;;;18.80;99.90;;;18.20;100.00;100484.50;3970216;29;20118;-74
2023/07/28 04:25:41;;;;;;;0.40;0.22;;;18.80;99.90;;;18.25;100.00;100497.19;3960842;29;20449;-74
2023/07/28 04:27:42;;;;;;;0.50;0.28;;;18.80;99.90;;;18.24;100.00;100499.06;3981591;29;20069;-73
2023/07/28 04:29:43;;;;;;;0.38;0.20;;;18.80;99.90;;;18.27;100.00;100497.81;3981711;29;20031;-74
2023/07/28 04:31:44;;;;;;;0.95;0.20;;;18.80;99.90;;;18.28;100.00;100491.44;3981480;29;20625;-74
2023/07/28 04:33:45;;;;;;;0.30;0.20;;;18.80;99.90;;;18.29;100.00;100493.06;3965508;30;20027;-74
2023/07/28 04:35:46;;;;;;;0.52;0.30;;;18.80;99.90;;;18.27;100.00;100486.31;3981367;29;20049;-74
2023/07/28 04:37:46;;;;;;;1.23;0.30;;;18.80;99.90;;;18.30;100.00;100477.88;3981365;29;20518;-74
2023/07/28 04:39:47;;;;;;;0.55;0.28;;;18.90;99.90;;;18.30;100.00;100484.03;3964541;30;20035;-74
2023/07/28 04:41:48;;;;;;;0.50;0.22;;;18.90;99.90;;;18.30;100.00;100481.38;3975717;29;20035;-74
2023/07/28 04:43:49;;;;;;;1.25;0.40;;;18.90;99.90;;;18.31;100.00;100484.88;3975144;29;20027;-73
2023/07/28 04:45:50;;;;;;;0.45;0.20;;;18.90;99.90;;;18.29;100.00;100484.25;3981502;29;20399;-74
2023/07/28 04:47:51;;;;;;;0.52;0.20;;;18.90;99.90;;;18.30;100.00;100483.22;3964959;30;20097;-74
2023/07/28 04:49:51;;;;;;;0.63;0.40;;;18.90;99.90;;;18.32;100.00;100487.31;3965289;30;20108;-74
2023/07/28 04:51:52;;;;;;;2.45;0.40;;;18.90;99.90;;;18.34;100.00;100490.56;3981265;29;20487;-73
2023/07/28 04:53:53;;;;;;;0.57;0.20;;;18.90;99.90;;;18.32;100.00;100487.31;3981219;29;20368;-74
2023/07/28 04:55:54;;;;;;;1.15;0.30;;;18.90;99.90;;;18.30;100.00;100473.38;3963499;30;20104;-74
2023/07/28 04:57:56;;;;;;;0.60;0.20;;;18.90;99.90;;;18.33;100.00;100482.78;3981295;29;20030;-74
2023/07/28 04:59:56;;;;;;;0.52;0.20;;;18.90;99.90;;;18.37;100.00;100492.81;3964992;30;20100;-74
2023/07/28 05:01:57;;;;;;;0.45;0.30;;;18.90;99.90;;;18.36;100.00;100488.53;3978991;29;20035;-73
2023/07/28 05:03:58;;;;;;;0.77;0.30;;;18.90;99.90;;;18.35;100.00;100486.88;3981445;29;20093;-74
2023/07/28 05:05:59;;;;;;;0.55;0.30;;;18.90;99.90;;;18.34;100.00;100482.56;3957327;30;20032;-74
2023/07/28 05:08:00;;;;;;;0.50;0.35;;;18.90;99.90;;;18.41;100.00;100496.72;3975427;29;20041;-74
2023/07/28 05:10:01;;;;;;;0.30;0.20;;;19.00;99.90;;;18.42;100.00;100503.72;3980326;29;20034;-74
2023/07/28 05:12:02;;;;;;;0.40;0.30;;;19.00;99.90;;;18.42;100.00;100495.69;3972153;29;20084;-73
2023/07/28 05:14:05;;;;;;;0.93;0.30;;;19.00;99.90;;;18.42;100.00;100497.53;3964839;30;20435;-74
2023/07/28 05:16:06;;;;;;;0.35;0.17;;;19.00;99.90;;;18.38;100.00;100491.81;3963073;29;20029;-73
2023/07/28 05:18:07;;;;;;;0.38;0.20;;;19.00;99.90;;;18.43;100.00;100510.66;3980849;29;20027;-74
2023/07/28 05:20:08;;;;;;;0.30;0.20;;;19.00;99.90;;;18.44;100.00;100506.97;3980747;29;20088;-74
2023/07/28 05:22:09;;;;;;;0.47;0.30;;;19.00;99.90;;;18.44;100.00;100506.97;3980743;29;20058;-74
2023/07/28 05:24:10;;;;;;;0.65;0.30;;;19.00;99.90;;;18.45;100.00;100503.28;3964721;29;20435;-74
2023/07/28 05:26:11;;;;;;;0.38;0.20;;;19.00;99.90;;;18.50;100.00;100510.69;3962677;30;20031;-74
2023/07/28 05:28:12;;;;;;;0.47;0.20;;;19.10;99.90;;;18.55;100.00;100505.50;3971093;29;20026;-74
2023/07/28 05:30:13;;;;;;;0.50;0.30;;;19.10;99.90;;;18.61;100.00;100515.34;3962704;30;20039;-74
2023/07/28 05:32:14;;;;;;;0.25;0.20;;;19.10;99.90;;;18.62;100.00;100512.47;3974252;29;20566;-74
2023/07/28 05:34:14;;;;;;;0.20;0.10;;;19.10;99.90;;;18.62;100.00;100512.47;3974231;29;20062;-74
2023/07/28 05:36:15;;;;;;;0.50;0.30;;;19.20;99.90;;;18.65;100.00;100514.72;3972597;29;20041;-74
2023/07/28 05:38:16;;;;;;;0.30;0.20;;;19.20;99.90;;;18.66;100.00;100519.03;3957347;30;20428;-74
2023/07/28 05:40:17;;;;;;;0.73;0.40;;;19.20;99.90;;;18.70;100.00;100514.88;3980649;29;20034;-74
2023/07/28 05:42:18;;;;;;;1.38;0.32;;;19.20;99.90;;;18.76;100.00;100530.06;3962493;30;20036;-74
2023/07/28 05:44:19;;;;;;;0.45;0.30;;;19.30;99.90;;;18.81;100.00;100523.25;3976992;29;20429;-74
2023/07/28 05:46:19;;;;;;;2.05;0.30;;;19.30;99.90;;;18.86;100.00;100518.91;3958545;30;20027;-74
2023/07/28 05:48:20;;;;;;;1.13;0.20;;;19.40;99.90;;;18.92;100.00;100525.25;3975174;29;20030;-74
2023/07/28 05:50:21;;;;;;;0.95;0.35;;;19.40;99.90;;;18.95;100.00;100524.81;3974572;29;20035;-74
2023/07/28 05:52:22;;;;;;;0.77;0.38;;;19.50;99.90;;;18.97;100.00;100525.41;3960605;30;20028;-74
2023/07/28 05:54:23;;;;;;;0.30;0.20;;;19.50;99.90;;;18.99;100.00;100518.84;3957305;30;20085;-74
2023/07/28 05:56:24;;;;;;;1.33;0.30;;;19.50;99.90;;;19.02;100.00;100523.75;3963373;30;20065;-74
2023/07/28 05:58:25;;;;;;;0.75;0.40;;;19.60;99.90;;;19.04;100.00;100526.19;3959233;30;20488;-74
2023/07/28 06:00:26;;;;;;;0.32;0.20;;;19.60;99.90;;;19.03;100.00;100516.53;3980391;29;20034;-74
2023/07/28 06:02:27;;;;;;;0.60;0.40;;;19.60;99.90;;;19.07;100.00;100523.91;3980349;29;20038;-74
2023/07/28 06:04:28;;;;;;;0.77;0.50;;;19.60;99.90;;;19.07;100.00;100525.75;3980538;29;20027;-74
2023/07/28 06:06:28;;;;;;;0.45;0.30;;;19.60;99.90;;;19.11;100.00;100526.97;3955574;29;20040;-74
2023/07/28 06:08:29;;;;;;;0.40;0.20;;;19.70;99.90;;;19.14;100.00;100519.34;3964491;30;20480;-74
2023/07/28 06:10:30;;;;;;;0.73;0.40;;;19.70;99.90;;;19.21;100.00;100528.13;3980416;29;20042;-74
2023/07/28 06:12:31;;;;;;;3.15;0.60;;;19.70;99.90;;;19.24;100.00;100526.84;3980402;29;20034;-74
2023/07/28 06:14:32;;;;;;;6.57;1.55;;;19.70;99.90;;;19.23;100.00;100519.91;3976319;29;20054;-74
2023/07/28 06:16:33;;;;;;;1.48;0.80;;;19.80;99.90;;;19.27;100.00;100529.09;3960634;30;20126;-74
2023/07/28 06:18:33;;;;;;;5.03;1.20;;;19.80;99.90;;;19.29;100.00;100533.19;3957803;30;20097;-74
2023/07/28 06:20:35;;;;;;;2.55;0.88;;;19.80;99.90;;;19.30;100.00;100529.50;3972756;29;20454;-74
2023/07/28 06:22:36;;;;;;;2.15;1.17;;;19.90;99.90;;;19.35;100.00;100534.19;3959781;30;20039;-74
2023/07/28 06:24:36;;;;;;;3.03;0.68;;;19.90;99.90;;;19.39;100.00;100537.22;3976458;29;20442;-75
2023/07/28 06:26:37;;;;;;;4.13;1.35;;;19.90;99.90;;;19.44;100.00;100527.56;3976422;29;20027;-74
2023/07/28 06:28:38;;;;;;;1.15;0.70;;;20.00;99.90;;;19.55;100.00;100534.06;3956970;30;20019;-75
2023/07/28 06:30:39;;;;;;;9.50;1.85;;;20.00;99.90;;;19.62;100.00;100532.16;3973880;29;20027;-74
2023/07/28 06:32:40;;;;;;;8.00;1.80;;;20.10;99.90;;;19.76;100.00;100529.13;3972769;29;20117;-74
2023/07/28 06:34:41;;;;;;;14.70;3.85;;;20.20;99.90;;;19.95;100.00;100521.91;3976144;29;20034;-74
2023/07/28 06:36:42;;;;;;;8.07;1.85;;;20.30;99.90;;;20.17;100.00;100527.66;3958476;30;20035;-74
2023/07/28 06:38:45;;;;;;;7.18;1.90;;;20.50;99.90;;;20.24;100.00;100523.88;3974089;29;20046;-74
2023/07/28 06:40:46;;;;;;;2.67;0.65;;;20.60;99.90;;;20.25;100.00;100522.00;3959921;29;20110;-74
2023/07/28 06:42:47;;;;;;;1.38;0.35;;;20.70;99.90;;;20.27;100.00;100511.91;3975250;29;20470;-74
2023/07/28 06:44:48;;;;;;;1.15;0.30;;;20.70;99.90;;;20.27;100.00;100520.78;3975947;29;20031;-74
2023/07/28 06:46:50;;;;;;;5.80;1.20;;;20.70;99.90;;;20.27;100.00;100514.59;3956575;30;20040;-74
2023/07/28 06:48:51;;;;;;;9.45;3.13;;;20.70;99.90;;;20.30;100.00;100514.13;3972725;29;20023;-74
2023/07/28 06:50:52;;;;;;;1.05;0.55;;;20.70;99.90;;;20.25;100.00;100519.34;3970047;29;20515;-74
2023/07/28 06:52:53;;;;;;;1.13;0.40;;;20.70;99.90;;;20.19;100.00;100521.03;3973195;29;20412;-74
2023/07/28 06:54:54;;;;;;;4.90;1.23;;;20.70;99.90;;;20.21;100.00;100527.00;3974625;29;20035;-74
2023/07/28 06:56:55;;;;;;;2.70;0.50;;;20.70;99.90;;;20.28;100.00;100526.94;3975814;29;20027;-74
2023/07/28 06:58:56;;;;;;;13.85;4.07;;;20.70;99.90;;;20.47;100.00;100527.72;3976009;29;20027;-75
2023/07/28 07:00:58;;;;;;;40.67;10.32;;;20.80;99.90;;;20.66;100.00;100529.34;3958776;30;20031;-74
2023/07/28 07:02:58;;;;;;;7.85;2.88;;;21.00;99.90;;;20.79;100.00;100529.97;3972345;29;20031;-74
2023/07/28 07:04:59;;;;;;;8.98;2.35;;;21.10;99.90;;;20.89;100.00;100535.59;3970195;29;20566;-75
2023/07/28 07:07:00;;;;;;;8.15;2.60;;;21.20;99.90;;;20.93;100.00;100541.34;3956570;29;20031;-74
2023/07/28 07:09:01;;;;;;;1.98;0.60;;;21.30;99.90;;;20.91;100.00;100536.19;3978620;29;20039;-74
2023/07/28 07:11:02;;;;;;;36.90;7.80;;;21.30;99.90;;;20.89;100.00;100540.16;3975860;29;20035;-74
2023/07/28 07:13:03;;;;;;;12.40;3.45;;;21.40;99.90;;;20.90;100.00;100542.63;3958670;30;20030;-74
2023/07/28 07:15:05;;;;;;;4.78;1.80;;;21.40;99.90;;;20.96;100.00;100540.88;3958296;30;20042;-74
2023/07/28 07:17:07;;;;;;;1.73;0.40;;;21.40;99.90;;;21.10;100.00;100549.56;3958475;29;20458;-75
2023/07/28 07:19:08;;;;;;;8.77;1.50;;;21.50;99.90;;;21.17;100.00;100545.75;3957939;30;20114;-75
2023/07/28 07:21:10;;;;;;;3.50;1.20;;;21.60;99.90;;;21.37;100.00;100553.47;3956410;30;20051;-75
2023/07/28 07:23:11;;;;;;;11.75;2.42;;;21.80;99.90;;;21.46;100.00;100560.97;3982308;29;20046;-74
2023/07/28 07:25:12;;;;;;;4.07;0.73;;;21.90;99.90;;;21.47;100.00;100559.91;3977094;29;20031;-74
2023/07/28 07:27:13;;;;;;;1.55;0.70;;;21.90;99.90;;;21.48;100.00;100560.72;3973942;29;20515;-75
2023/07/28 07:29:14;;;;;;;0.70;0.30;;;21.90;99.90;;;21.44;100.00;100552.31;3990655;29;20097;-75
2023/07/28 07:31:15;;;;;;;0.50;0.30;;;21.90;99.90;;;21.38;100.00;100553.28;3980849;29;20038;-75
2023/07/28 07:33:16;;;;;;;0.40;0.20;;;21.90;99.90;;;21.24;100.00;100554.50;3992786;29;20112;-74
2023/07/28 07:35:17;;;;;;;0.63;0.30;;;21.80;99.90;;;21.20;100.00;100556.03;3989347;29;20031;-76
2023/07/28 07:37:18;;;;;;;1.10;0.40;;;21.70;99.90;;;21.21;100.00;100554.13;3974195;29;20067;-78
2023/07/28 07:39:18;;;;;;;1.88;0.30;;;21.70;99.90;;;21.18;100.00;100552.75;3976924;29;20097;-76
2023/07/28 07:41:22;;;;;;;0.38;0.30;;;21.70;99.90;;;21.13;100.00;100555.31;3976317;29;20035;-76
2023/07/28 07:43:23;;;;;;;0.88;0.65;;;21.60;99.90;;;21.05;100.00;100560.16;3975154;29;20038;-76
2023/07/28 07:45:24;;;;;;;2.30;0.43;;;21.60;99.90;;;20.96;100.00;100563.16;3995616;29;20042;-76
2023/07/28 07:47:25;;;;;;;0.70;0.40;;;21.50;99.90;;;20.92;100.00;100545.88;3996052;29;20035;-78
2023/07/28 07:49:26;;;;;;;0.98;0.40;;;21.50;99.90;;;20.97;100.00;100553.22;3990344;29;20580;-76
2023/07/28 07:51:26;;;;;;;2.45;0.50;;;21.50;99.90;;;20.98;100.00;100558.38;3987957;29;20038;-76
2023/07/28 07:53:27;;;;;;;0.50;0.32;;;21.60;99.90;;;21.16;100.00;100556.69;3975838;29;20042;-76
2023/07/28 07:55:28;;;;;;;1.02;0.50;;;21.60;99.90;;;21.51;100.00;100553.03;3992255;29;20031;-75
2023/07/28 07:57:29;;;;;;;1.60;0.85;;;21.90;99.90;;;21.79;100.00;100554.22;3978060;29;20034;-75
2023/07/28 07:59:32;;;;;;;0.70;0.50;;;22.10;99.90;;;21.79;100.00;100554.22;3991181;29;20040;-76
2023/07/28 08:01:33;;;;;;;2.35;0.65;;;22.20;99.90;;;21.90;100.00;100546.19;3990531;29;20518;-74
2023/07/28 08:03:37;;;;;;;2.10;0.80;;;22.30;99.90;;;22.08;100.00;100555.97;3977637;29;20158;-76
2023/07/28 08:05:38;;;;;;;2.55;0.60;;;22.40;99.90;;;22.18;100.00;100550.00;3986680;29;20038;-76
2023/07/28 08:07:39;;;;;;;1.52;0.52;;;22.50;99.90;;;22.07;100.00;100548.16;3992848;29;20022;-75
2023/07/28 08:09:40;;;;;;;2.45;0.60;;;22.50;99.90;;;22.04;100.00;100555.63;3984146;29;20022;-76
2023/07/28 08:11:41;;;;;;;0.77;0.43;;;22.50;99.90;;;22.06;100.00;100552.72;3979615;29;20029;-76
2023/07/28 08:13:42;;;;;;;1.30;0.52;;;22.50;99.90;;;22.06;100.00;100550.03;3980257;29;20038;-74
2023/07/28 08:15:44;;;;;;;1.58;0.50;;;22.50;99.90;;;22.22;100.00;100560.03;3986999;29;20050;-74
2023/07/28 08:17:46;;;;;;;0.70;0.47;;;22.60;99.90;;;22.22;100.00;100568.09;3991220;29;20035;-74